sensor_id;sensor_type;location;lat;lon;timestamp;P1;durP1;ratioP1;P2;durP2;ratioP2
10586;SDS011;5341;47.606;7.576;2022-08-18T00:00:35;7.72;;;4.53;;
10586;SDS011;5341;47.606;7.576;2022-08-18T00:03:06;4.55;;;3.97;;
10586;SDS011;5341;47.606;7.576;2022-08-18T00:05:35;4.63;;;3.72;;
10586;SDS011;5341;47.606;7.576;2022-08-18T00:08:06;5.90;;;4.13;;
10586;SDS011;5341;47.606;7.576;2022-08-18T00:10:34;4.50;;;4.10;;
10586;SDS011;5341;47.606;7.576;2022-08-18T00:13:02;6.53;;;4.38;;
10586;SDS011;5341;47.606;7.576;2022-08-18T00:15:32;4.72;;;4.22;;
10586;SDS011;5341;47.606;7.576;2022-08-18T00:18:00;4.35;;;3.95;;
10586;SDS011;5341;47.606;7.576;2022-08-18T00:20:28;5.22;;;4.15;;
10586;SDS011;5341;47.606;7.576;2022-08-18T00:22:56;5.28;;;4.50;;
10586;SDS011;5341;47.606;7.576;2022-08-18T00:25:24;5.63;;;3.97;;
10586;SDS011;5341;47.606;7.576;2022-08-18T00:27:54;4.90;;;4.03;;
10586;SDS011;5341;47.606;7.576;2022-08-18T00:30:22;4.22;;;3.83;;
10586;SDS011;5341;47.606;7.576;2022-08-18T00:32:54;4.10;;;3.70;;
10586;SDS011;5341;47.606;7.576;2022-08-18T00:35:28;4.30;;;3.90;;
10586;SDS011;5341;47.606;7.576;2022-08-18T00:37:59;3.95;;;3.60;;
10586;SDS011;5341;47.606;7.576;2022-08-18T00:40:32;5.13;;;4.00;;
10586;SDS011;5341;47.606;7.576;2022-08-18T00:43:06;5.47;;;4.38;;
10586;SDS011;5341;47.606;7.576;2022-08-18T00:45:39;4.20;;;3.80;;
10586;SDS011;5341;47.606;7.576;2022-08-18T00:48:12;4.40;;;4.00;;
10586;SDS011;5341;47.606;7.576;2022-08-18T00:50:41;4.38;;;3.97;;
10586;SDS011;5341;47.606;7.576;2022-08-18T00:53:14;4.53;;;3.95;;
10586;SDS011;5341;47.606;7.576;2022-08-18T00:55:52;4.72;;;4.10;;
10586;SDS011;5341;47.606;7.576;2022-08-18T00:58:23;4.55;;;3.88;;
10586;SDS011;5341;47.606;7.576;2022-08-18T01:00:56;5.47;;;3.92;;
10586;SDS011;5341;47.606;7.576;2022-08-18T01:03:30;4.30;;;3.78;;
10586;SDS011;5341;47.606;7.576;2022-08-18T01:06:02;4.43;;;4.03;;
10586;SDS011;5341;47.606;7.576;2022-08-18T01:08:33;4.63;;;4.20;;
10586;SDS011;5341;47.606;7.576;2022-08-18T01:11:03;4.05;;;3.67;;
10586;SDS011;5341;47.606;7.576;2022-08-18T01:13:31;4.22;;;3.83;;
10586;SDS011;5341;47.606;7.576;2022-08-18T01:15:59;5.00;;;4.20;;
10586;SDS011;5341;47.606;7.576;2022-08-18T01:18:50;4.63;;;3.97;;
10586;SDS011;5341;47.606;7.576;2022-08-18T01:21:36;4.60;;;4.20;;
10586;SDS011;5341;47.606;7.576;2022-08-18T01:24:18;4.43;;;4.03;;
10586;SDS011;5341;47.606;7.576;2022-08-18T01:27:08;4.18;;;3.78;;
10586;SDS011;5341;47.606;7.576;2022-08-18T01:29:36;5.40;;;4.55;;
10586;SDS011;5341;47.606;7.576;2022-08-18T01:32:03;5.18;;;4.38;;
10586;SDS011;5341;47.606;7.576;2022-08-18T01:34:31;4.90;;;4.20;;
10586;SDS011;5341;47.606;7.576;2022-08-18T01:36:59;6.38;;;4.35;;
10586;SDS011;5341;47.606;7.576;2022-08-18T01:39:31;6.05;;;4.20;;
10586;SDS011;5341;47.606;7.576;2022-08-18T01:41:58;4.82;;;4.32;;
10586;SDS011;5341;47.606;7.576;2022-08-18T01:44:29;6.18;;;4.20;;
10586;SDS011;5341;47.606;7.576;2022-08-18T01:46:58;5.03;;;4.53;;
10586;SDS011;5341;47.606;7.576;2022-08-18T01:49:26;6.88;;;4.40;;
10586;SDS011;5341;47.606;7.576;2022-08-18T01:51:54;4.85;;;3.70;;
10586;SDS011;5341;47.606;7.576;2022-08-18T01:54:21;5.70;;;4.43;;
10586;SDS011;5341;47.606;7.576;2022-08-18T01:56:56;5.13;;;4.45;;
10586;SDS011;5341;47.606;7.576;2022-08-18T01:59:26;5.80;;;4.43;;
10586;SDS011;5341;47.606;7.576;2022-08-18T02:01:53;5.32;;;4.47;;
10586;SDS011;5341;47.606;7.576;2022-08-18T02:04:25;4.55;;;4.15;;
10586;SDS011;5341;47.606;7.576;2022-08-18T02:06:57;5.78;;;4.20;;
10586;SDS011;5341;47.606;7.576;2022-08-18T02:09:25;5.25;;;4.47;;
10586;SDS011;5341;47.606;7.576;2022-08-18T02:11:53;11.30;;;4.38;;
10586;SDS011;5341;47.606;7.576;2022-08-18T02:14:23;4.97;;;4.15;;
10586;SDS011;5341;47.606;7.576;2022-08-18T02:16:51;5.05;;;4.55;;
10586;SDS011;5341;47.606;7.576;2022-08-18T02:19:18;6.38;;;4.53;;
10586;SDS011;5341;47.606;7.576;2022-08-18T02:21:46;5.47;;;4.50;;
10586;SDS011;5341;47.606;7.576;2022-08-18T02:24:13;6.60;;;4.68;;
10586;SDS011;5341;47.606;7.576;2022-08-18T02:26:41;7.93;;;5.47;;
10586;SDS011;5341;47.606;7.576;2022-08-18T02:29:14;6.15;;;5.40;;
10586;SDS011;5341;47.606;7.576;2022-08-18T02:31:44;6.30;;;5.25;;
10586;SDS011;5341;47.606;7.576;2022-08-18T02:34:14;6.47;;;5.00;;
10586;SDS011;5341;47.606;7.576;2022-08-18T02:36:41;7.00;;;4.93;;
10586;SDS011;5341;47.606;7.576;2022-08-18T02:39:12;7.40;;;5.35;;
10586;SDS011;5341;47.606;7.576;2022-08-18T02:41:43;6.25;;;4.85;;
10586;SDS011;5341;47.606;7.576;2022-08-18T02:44:15;6.15;;;5.10;;
10586;SDS011;5341;47.606;7.576;2022-08-18T02:46:43;8.07;;;5.43;;
10586;SDS011;5341;47.606;7.576;2022-08-18T02:49:11;6.88;;;5.57;;
10586;SDS011;5341;47.606;7.576;2022-08-18T02:51:39;6.68;;;5.90;;
10586;SDS011;5341;47.606;7.576;2022-08-18T02:54:06;5.95;;;5.35;;
10586;SDS011;5341;47.606;7.576;2022-08-18T02:56:36;7.60;;;5.03;;
10586;SDS011;5341;47.606;7.576;2022-08-18T02:59:03;5.65;;;5.15;;
10586;SDS011;5341;47.606;7.576;2022-08-18T03:01:34;6.85;;;5.40;;
10586;SDS011;5341;47.606;7.576;2022-08-18T03:04:04;5.95;;;5.35;;
10586;SDS011;5341;47.606;7.576;2022-08-18T03:06:34;6.80;;;5.60;;
10586;SDS011;5341;47.606;7.576;2022-08-18T03:09:03;6.03;;;5.43;;
10586;SDS011;5341;47.606;7.576;2022-08-18T03:11:31;5.97;;;5.38;;
10586;SDS011;5341;47.606;7.576;2022-08-18T03:13:59;5.72;;;5.22;;
10586;SDS011;5341;47.606;7.576;2022-08-18T03:16:27;6.88;;;5.63;;
10586;SDS011;5341;47.606;7.576;2022-08-18T03:18:59;6.20;;;5.60;;
10586;SDS011;5341;47.606;7.576;2022-08-18T03:21:31;6.35;;;5.82;;
10586;SDS011;5341;47.606;7.576;2022-08-18T03:24:08;5.82;;;5.22;;
10586;SDS011;5341;47.606;7.576;2022-08-18T03:26:38;6.60;;;5.50;;
10586;SDS011;5341;47.606;7.576;2022-08-18T03:29:08;6.25;;;5.43;;
10586;SDS011;5341;47.606;7.576;2022-08-18T03:31:37;7.38;;;5.30;;
10586;SDS011;5341;47.606;7.576;2022-08-18T03:34:06;5.70;;;5.10;;
10586;SDS011;5341;47.606;7.576;2022-08-18T03:36:34;6.60;;;5.60;;
10586;SDS011;5341;47.606;7.576;2022-08-18T03:39:03;6.85;;;5.25;;
10586;SDS011;5341;47.606;7.576;2022-08-18T03:41:32;5.53;;;5.03;;
10586;SDS011;5341;47.606;7.576;2022-08-18T03:44:00;5.95;;;5.15;;
10586;SDS011;5341;47.606;7.576;2022-08-18T03:46:28;6.45;;;5.13;;
10586;SDS011;5341;47.606;7.576;2022-08-18T03:48:56;5.97;;;5.38;;
10586;SDS011;5341;47.606;7.576;2022-08-18T03:51:27;6.03;;;5.53;;
10586;SDS011;5341;47.606;7.576;2022-08-18T03:53:58;6.32;;;5.47;;
10586;SDS011;5341;47.606;7.576;2022-08-18T03:56:28;5.70;;;5.20;;
10586;SDS011;5341;47.606;7.576;2022-08-18T03:58:59;5.78;;;5.28;;
10586;SDS011;5341;47.606;7.576;2022-08-18T04:01:29;6.28;;;5.53;;
10586;SDS011;5341;47.606;7.576;2022-08-18T04:03:58;5.90;;;5.30;;
10586;SDS011;5341;47.606;7.576;2022-08-18T04:06:31;6.03;;;5.45;;
10586;SDS011;5341;47.606;7.576;2022-08-18T04:09:01;6.38;;;5.78;;
10586;SDS011;5341;47.606;7.576;2022-08-18T04:11:31;6.38;;;5.35;;
10586;SDS011;5341;47.606;7.576;2022-08-18T04:13:59;6.28;;;5.68;;
10586;SDS011;5341;47.606;7.576;2022-08-18T04:16:27;6.88;;;5.40;;
10586;SDS011;5341;47.606;7.576;2022-08-18T04:18:56;6.30;;;5.70;;
10586;SDS011;5341;47.606;7.576;2022-08-18T04:21:27;6.97;;;5.15;;
10586;SDS011;5341;47.606;7.576;2022-08-18T04:23:57;5.70;;;5.20;;
10586;SDS011;5341;47.606;7.576;2022-08-18T04:26:27;8.25;;;5.78;;
10586;SDS011;5341;47.606;7.576;2022-08-18T04:28:54;6.25;;;5.65;;
10586;SDS011;5341;47.606;7.576;2022-08-18T04:31:22;6.18;;;5.45;;
10586;SDS011;5341;47.606;7.576;2022-08-18T04:33:50;6.65;;;6.05;;
10586;SDS011;5341;47.606;7.576;2022-08-18T04:36:18;6.07;;;5.50;;
10586;SDS011;5341;47.606;7.576;2022-08-18T04:38:47;7.05;;;5.75;;
10586;SDS011;5341;47.606;7.576;2022-08-18T04:41:14;6.60;;;6.00;;
10586;SDS011;5341;47.606;7.576;2022-08-18T04:43:42;6.25;;;5.65;;
10586;SDS011;5341;47.606;7.576;2022-08-18T04:46:11;8.30;;;6.10;;
10586;SDS011;5341;47.606;7.576;2022-08-18T04:48:39;6.15;;;5.55;;
10586;SDS011;5341;47.606;7.576;2022-08-18T04:51:08;6.15;;;5.55;;
10586;SDS011;5341;47.606;7.576;2022-08-18T04:53:37;6.28;;;5.68;;
10586;SDS011;5341;47.606;7.576;2022-08-18T04:56:16;7.13;;;5.57;;
10586;SDS011;5341;47.606;7.576;2022-08-18T04:58:50;7.07;;;5.63;;
10586;SDS011;5341;47.606;7.576;2022-08-18T05:01:21;7.28;;;5.75;;
10586;SDS011;5341;47.606;7.576;2022-08-18T05:03:52;7.13;;;5.40;;
10586;SDS011;5341;47.606;7.576;2022-08-18T05:06:21;6.28;;;5.10;;
10586;SDS011;5341;47.606;7.576;2022-08-18T05:08:51;6.15;;;5.55;;
10586;SDS011;5341;47.606;7.576;2022-08-18T05:11:22;6.30;;;5.20;;
10586;SDS011;5341;47.606;7.576;2022-08-18T05:13:54;5.93;;;5.32;;
10586;SDS011;5341;47.606;7.576;2022-08-18T05:16:23;8.40;;;5.43;;
10586;SDS011;5341;47.606;7.576;2022-08-18T05:18:51;5.78;;;5.22;;
10586;SDS011;5341;47.606;7.576;2022-08-18T05:21:19;5.85;;;5.35;;
10586;SDS011;5341;47.606;7.576;2022-08-18T05:23:49;7.30;;;6.10;;
10586;SDS011;5341;47.606;7.576;2022-08-18T05:26:18;6.93;;;5.57;;
10586;SDS011;5341;47.606;7.576;2022-08-18T05:28:47;6.78;;;5.38;;
10586;SDS011;5341;47.606;7.576;2022-08-18T05:31:17;5.72;;;5.22;;
10586;SDS011;5341;47.606;7.576;2022-08-18T05:33:46;5.90;;;5.20;;
10586;SDS011;5341;47.606;7.576;2022-08-18T05:36:17;8.98;;;5.60;;
10586;SDS011;5341;47.606;7.576;2022-08-18T05:39:03;5.82;;;5.03;;
10586;SDS011;5341;47.606;7.576;2022-08-18T05:41:39;6.50;;;5.28;;
10586;SDS011;5341;47.606;7.576;2022-08-18T05:44:11;7.18;;;5.43;;
10586;SDS011;5341;47.606;7.576;2022-08-18T05:46:42;5.80;;;5.22;;
10586;SDS011;5341;47.606;7.576;2022-08-18T05:49:17;9.68;;;5.72;;
10586;SDS011;5341;47.606;7.576;2022-08-18T05:51:46;6.20;;;5.65;;
10586;SDS011;5341;47.606;7.576;2022-08-18T05:54:15;5.82;;;5.13;;
10586;SDS011;5341;47.606;7.576;2022-08-18T05:57:04;9.40;;;5.65;;
10586;SDS011;5341;47.606;7.576;2022-08-18T05:59:39;6.20;;;5.15;;
10586;SDS011;5341;47.606;7.576;2022-08-18T06:02:10;6.88;;;5.22;;
10586;SDS011;5341;47.606;7.576;2022-08-18T06:04:43;5.53;;;5.03;;
10586;SDS011;5341;47.606;7.576;2022-08-18T06:07:16;7.03;;;5.18;;
10586;SDS011;5341;47.606;7.576;2022-08-18T06:09:50;7.43;;;5.97;;
10586;SDS011;5341;47.606;7.576;2022-08-18T06:12:22;5.78;;;5.25;;
10586;SDS011;5341;47.606;7.576;2022-08-18T06:14:57;8.13;;;5.30;;
10586;SDS011;5341;47.606;7.576;2022-08-18T06:17:33;7.95;;;5.63;;
10586;SDS011;5341;47.606;7.576;2022-08-18T06:20:10;6.03;;;5.25;;
10586;SDS011;5341;47.606;7.576;2022-08-18T06:22:47;6.93;;;6.20;;
10586;SDS011;5341;47.606;7.576;2022-08-18T06:25:24;6.15;;;5.55;;
10586;SDS011;5341;47.606;7.576;2022-08-18T06:28:01;6.70;;;5.50;;
10586;SDS011;5341;47.606;7.576;2022-08-18T06:30:42;6.50;;;5.90;;
10586;SDS011;5341;47.606;7.576;2022-08-18T06:33:29;6.30;;;5.70;;
10586;SDS011;5341;47.606;7.576;2022-08-18T06:36:09;6.75;;;5.53;;
10586;SDS011;5341;47.606;7.576;2022-08-18T06:38:49;11.02;;;5.70;;
10586;SDS011;5341;47.606;7.576;2022-08-18T06:41:32;7.15;;;5.68;;
10586;SDS011;5341;47.606;7.576;2022-08-18T06:44:03;5.75;;;5.25;;
10586;SDS011;5341;47.606;7.576;2022-08-18T06:46:41;5.63;;;5.13;;
10586;SDS011;5341;47.606;7.576;2022-08-18T06:49:20;6.85;;;5.65;;
10586;SDS011;5341;47.606;7.576;2022-08-18T06:51:54;6.88;;;5.40;;
10586;SDS011;5341;47.606;7.576;2022-08-18T06:54:26;6.63;;;5.40;;
10586;SDS011;5341;47.606;7.576;2022-08-18T06:56:56;5.55;;;5.03;;
10586;SDS011;5341;47.606;7.576;2022-08-18T06:59:29;7.05;;;5.97;;
10586;SDS011;5341;47.606;7.576;2022-08-18T07:02:03;5.97;;;5.38;;
10586;SDS011;5341;47.606;7.576;2022-08-18T07:04:58;6.63;;;5.88;;
10586;SDS011;5341;47.606;7.576;2022-08-18T07:07:31;5.70;;;5.20;;
10586;SDS011;5341;47.606;7.576;2022-08-18T07:10:03;6.18;;;5.00;;
10586;SDS011;5341;47.606;7.576;2022-08-18T07:12:32;7.10;;;5.45;;
10586;SDS011;5341;47.606;7.576;2022-08-18T07:15:01;5.88;;;5.20;;
10586;SDS011;5341;47.606;7.576;2022-08-18T07:17:34;6.22;;;5.10;;
10586;SDS011;5341;47.606;7.576;2022-08-18T07:20:05;5.53;;;5.03;;
10586;SDS011;5341;47.606;7.576;2022-08-18T07:22:50;6.65;;;5.10;;
10586;SDS011;5341;47.606;7.576;2022-08-18T07:25:20;5.70;;;5.20;;
10586;SDS011;5341;47.606;7.576;2022-08-18T07:27:50;5.97;;;4.90;;
10586;SDS011;5341;47.606;7.576;2022-08-18T07:30:25;5.38;;;4.97;;
10586;SDS011;5341;47.606;7.576;2022-08-18T07:32:57;6.03;;;5.38;;
10586;SDS011;5341;47.606;7.576;2022-08-18T07:35:32;7.80;;;5.00;;
10586;SDS011;5341;47.606;7.576;2022-08-18T07:38:06;5.50;;;5.00;;
10586;SDS011;5341;47.606;7.576;2022-08-18T07:40:44;5.45;;;4.93;;
10586;SDS011;5341;47.606;7.576;2022-08-18T07:43:19;6.93;;;5.00;;
10586;SDS011;5341;47.606;7.576;2022-08-18T07:45:51;5.53;;;5.03;;
10586;SDS011;5341;47.606;7.576;2022-08-18T07:48:29;6.00;;;5.32;;
10586;SDS011;5341;47.606;7.576;2022-08-18T07:51:00;6.78;;;5.03;;
10586;SDS011;5341;47.606;7.576;2022-08-18T07:53:38;6.40;;;5.60;;
10586;SDS011;5341;47.606;7.576;2022-08-18T07:56:15;6.70;;;6.00;;
10586;SDS011;5341;47.606;7.576;2022-08-18T07:58:55;6.25;;;5.63;;
10586;SDS011;5341;47.606;7.576;2022-08-18T08:01:30;5.72;;;5.13;;
10586;SDS011;5341;47.606;7.576;2022-08-18T08:04:12;6.30;;;5.55;;
10586;SDS011;5341;47.606;7.576;2022-08-18T08:06:47;7.22;;;6.20;;
10586;SDS011;5341;47.606;7.576;2022-08-18T08:09:21;6.82;;;6.18;;
10586;SDS011;5341;47.606;7.576;2022-08-18T08:11:56;7.50;;;6.50;;
10586;SDS011;5341;47.606;7.576;2022-08-18T08:14:31;6.80;;;6.10;;
10586;SDS011;5341;47.606;7.576;2022-08-18T08:17:12;8.57;;;6.07;;
10586;SDS011;5341;47.606;7.576;2022-08-18T08:19:58;7.10;;;6.20;;
10586;SDS011;5341;47.606;7.576;2022-08-18T08:22:37;6.22;;;5.50;;
10586;SDS011;5341;47.606;7.576;2022-08-18T08:25:12;7.15;;;5.63;;
10586;SDS011;5341;47.606;7.576;2022-08-18T08:27:55;6.55;;;5.28;;
10586;SDS011;5341;47.606;7.576;2022-08-18T08:30:35;5.93;;;5.32;;
10586;SDS011;5341;47.606;7.576;2022-08-18T08:33:10;9.45;;;5.90;;
10586;SDS011;5341;47.606;7.576;2022-08-18T08:35:48;6.18;;;5.30;;
10586;SDS011;5341;47.606;7.576;2022-08-18T08:38:21;5.53;;;5.03;;
10586;SDS011;5341;47.606;7.576;2022-08-18T08:40:58;5.63;;;5.07;;
10586;SDS011;5341;47.606;7.576;2022-08-18T08:43:29;6.10;;;5.28;;
10586;SDS011;5341;47.606;7.576;2022-08-18T08:46:04;5.60;;;5.10;;
10586;SDS011;5341;47.606;7.576;2022-08-18T08:48:35;6.20;;;5.60;;
10586;SDS011;5341;47.606;7.576;2022-08-18T08:51:13;5.60;;;4.93;;
10586;SDS011;5341;47.606;7.576;2022-08-18T08:53:53;6.35;;;5.25;;
10586;SDS011;5341;47.606;7.576;2022-08-18T08:56:27;6.28;;;4.82;;
10586;SDS011;5341;47.606;7.576;2022-08-18T08:58:58;5.78;;;5.20;;
10586;SDS011;5341;47.606;7.576;2022-08-18T09:01:29;5.30;;;4.80;;
10586;SDS011;5341;47.606;7.576;2022-08-18T09:04:05;5.88;;;5.35;;
10586;SDS011;5341;47.606;7.576;2022-08-18T09:06:49;5.55;;;5.00;;
10586;SDS011;5341;47.606;7.576;2022-08-18T09:09:36;5.60;;;5.07;;
10586;SDS011;5341;47.606;7.576;2022-08-18T09:12:23;7.50;;;5.50;;
10586;SDS011;5341;47.606;7.576;2022-08-18T09:15:21;7.03;;;6.32;;
10586;SDS011;5341;47.606;7.576;2022-08-18T09:18:14;9.20;;;5.90;;
10586;SDS011;5341;47.606;7.576;2022-08-18T09:21:13;9.65;;;7.10;;
10586;SDS011;5341;47.606;7.576;2022-08-18T09:23:55;8.27;;;7.47;;
10586;SDS011;5341;47.606;7.576;2022-08-18T09:26:40;8.95;;;7.22;;
10586;SDS011;5341;47.606;7.576;2022-08-18T09:29:17;7.85;;;6.95;;
10586;SDS011;5341;47.606;7.576;2022-08-18T09:31:48;8.00;;;7.03;;
10586;SDS011;5341;47.606;7.576;2022-08-18T09:34:58;11.93;;;7.97;;
10586;SDS011;5341;47.606;7.576;2022-08-18T09:37:38;9.15;;;7.07;;
10586;SDS011;5341;47.606;7.576;2022-08-18T09:40:35;8.20;;;7.40;;
10586;SDS011;5341;47.606;7.576;2022-08-18T09:43:30;7.90;;;7.20;;
10586;SDS011;5341;47.606;7.576;2022-08-18T09:46:04;6.53;;;5.93;;
10586;SDS011;5341;47.606;7.576;2022-08-18T09:48:33;6.68;;;5.78;;
10586;SDS011;5341;47.606;7.576;2022-08-18T09:57:04;6.15;;;5.50;;
10586;SDS011;5341;47.606;7.576;2022-08-18T09:59:49;7.03;;;6.07;;
10586;SDS011;5341;47.606;7.576;2022-08-18T10:05:24;7.70;;;6.28;;
10586;SDS011;5341;47.606;7.576;2022-08-18T10:07:54;7.57;;;6.00;;
10586;SDS011;5341;47.606;7.576;2022-08-18T10:11:16;6.43;;;5.45;;
10586;SDS011;5341;47.606;7.576;2022-08-18T10:17:19;6.10;;;5.43;;
10586;SDS011;5341;47.606;7.576;2022-08-18T10:20:03;6.75;;;5.80;;
10586;SDS011;5341;47.606;7.576;2022-08-18T10:22:44;7.72;;;5.95;;
10586;SDS011;5341;47.606;7.576;2022-08-18T10:25:29;6.40;;;5.43;;
10586;SDS011;5341;47.606;7.576;2022-08-18T10:28:03;6.60;;;5.80;;
10586;SDS011;5341;47.606;7.576;2022-08-18T10:36:34;11.43;;;6.70;;
10586;SDS011;5341;47.606;7.576;2022-08-18T10:39:05;6.28;;;5.70;;
10586;SDS011;5341;47.606;7.576;2022-08-18T10:41:37;8.63;;;5.43;;
10586;SDS011;5341;47.606;7.576;2022-08-18T10:44:25;6.40;;;5.80;;
10586;SDS011;5341;47.606;7.576;2022-08-18T10:46:58;9.85;;;5.68;;
10586;SDS011;5341;47.606;7.576;2022-08-18T10:49:27;7.28;;;4.50;;
10586;SDS011;5341;47.606;7.576;2022-08-18T10:52:07;5.25;;;4.75;;
10586;SDS011;5341;47.606;7.576;2022-08-18T10:54:58;7.47;;;4.90;;
10586;SDS011;5341;47.606;7.576;2022-08-18T10:58:07;6.38;;;5.15;;
10586;SDS011;5341;47.606;7.576;2022-08-18T11:00:49;5.03;;;4.53;;
10586;SDS011;5341;47.606;7.576;2022-08-18T11:03:33;5.28;;;4.85;;
10586;SDS011;5341;47.606;7.576;2022-08-18T11:06:15;5.93;;;4.70;;
10586;SDS011;5341;47.606;7.576;2022-08-18T11:08:46;4.30;;;3.90;;
10586;SDS011;5341;47.606;7.576;2022-08-18T11:11:19;5.30;;;4.80;;
10586;SDS011;5341;47.606;7.576;2022-08-18T11:13:52;5.45;;;4.95;;
10586;SDS011;5341;47.606;7.576;2022-08-18T11:16:30;7.43;;;5.57;;
10586;SDS011;5341;47.606;7.576;2022-08-18T11:19:08;6.78;;;5.38;;
10586;SDS011;5341;47.606;7.576;2022-08-18T11:21:40;7.10;;;6.40;;
10586;SDS011;5341;47.606;7.576;2022-08-18T11:24:10;7.78;;;6.88;;
10586;SDS011;5341;47.606;7.576;2022-08-18T11:26:41;7.22;;;6.60;;
10586;SDS011;5341;47.606;7.576;2022-08-18T11:29:24;8.23;;;6.95;;
10586;SDS011;5341;47.606;7.576;2022-08-18T11:31:57;7.93;;;7.22;;
10586;SDS011;5341;47.606;7.576;2022-08-18T11:34:33;8.82;;;7.82;;
10586;SDS011;5341;47.606;7.576;2022-08-18T11:37:06;9.45;;;8.15;;
10586;SDS011;5341;47.606;7.576;2022-08-18T11:39:47;9.52;;;8.60;;
10586;SDS011;5341;47.606;7.576;2022-08-18T11:42:18;11.57;;;8.98;;
10586;SDS011;5341;47.606;7.576;2022-08-18T11:44:52;9.10;;;7.78;;
10586;SDS011;5341;47.606;7.576;2022-08-18T11:47:28;9.10;;;8.20;;
10586;SDS011;5341;47.606;7.576;2022-08-18T11:49:58;7.75;;;6.65;;
10586;SDS011;5341;47.606;7.576;2022-08-18T11:52:45;8.00;;;7.20;;
10586;SDS011;5341;47.606;7.576;2022-08-18T11:55:18;7.97;;;7.05;;
10586;SDS011;5341;47.606;7.576;2022-08-18T11:57:54;9.90;;;7.55;;
10586;SDS011;5341;47.606;7.576;2022-08-18T12:00:40;8.52;;;7.10;;
10586;SDS011;5341;47.606;7.576;2022-08-18T12:03:20;10.75;;;6.88;;
10586;SDS011;5341;47.606;7.576;2022-08-18T12:05:56;7.72;;;6.80;;
10586;SDS011;5341;47.606;7.576;2022-08-18T12:08:29;8.27;;;6.55;;
10586;SDS011;5341;47.606;7.576;2022-08-18T12:11:02;7.15;;;6.45;;
10586;SDS011;5341;47.606;7.576;2022-08-18T12:13:43;6.18;;;5.40;;
10586;SDS011;5341;47.606;7.576;2022-08-18T12:16:15;5.82;;;5.32;;
10586;SDS011;5341;47.606;7.576;2022-08-18T12:19:01;8.80;;;6.00;;
10586;SDS011;5341;47.606;7.576;2022-08-18T12:21:33;5.30;;;4.90;;
10586;SDS011;5341;47.606;7.576;2022-08-18T12:24:04;8.25;;;5.53;;
10586;SDS011;5341;47.606;7.576;2022-08-18T12:26:35;6.15;;;5.55;;
10586;SDS011;5341;47.606;7.576;2022-08-18T12:29:03;6.18;;;5.68;;
10586;SDS011;5341;47.606;7.576;2022-08-18T12:31:30;5.95;;;5.45;;
10586;SDS011;5341;47.606;7.576;2022-08-18T12:33:58;4.90;;;4.47;;
10586;SDS011;5341;47.606;7.576;2022-08-18T12:36:25;5.75;;;5.25;;
10586;SDS011;5341;47.606;7.576;2022-08-18T12:38:55;6.10;;;5.50;;
10586;SDS011;5341;47.606;7.576;2022-08-18T12:41:23;7.18;;;4.60;;
10586;SDS011;5341;47.606;7.576;2022-08-18T12:43:50;6.32;;;5.03;;
10586;SDS011;5341;47.606;7.576;2022-08-18T12:46:18;5.15;;;4.65;;
10586;SDS011;5341;47.606;7.576;2022-08-18T12:48:45;6.35;;;4.75;;
10586;SDS011;5341;47.606;7.576;2022-08-18T12:51:13;5.85;;;5.15;;
10586;SDS011;5341;47.606;7.576;2022-08-18T12:53:41;6.60;;;5.28;;
10586;SDS011;5341;47.606;7.576;2022-08-18T12:56:13;6.32;;;5.20;;
10586;SDS011;5341;47.606;7.576;2022-08-18T12:58:45;6.65;;;5.85;;
10586;SDS011;5341;47.606;7.576;2022-08-18T13:01:12;5.85;;;5.10;;
10586;SDS011;5341;47.606;7.576;2022-08-18T13:03:40;6.60;;;5.88;;
10586;SDS011;5341;47.606;7.576;2022-08-18T13:06:09;6.90;;;5.25;;
10586;SDS011;5341;47.606;7.576;2022-08-18T13:08:37;5.70;;;5.10;;
10586;SDS011;5341;47.606;7.576;2022-08-18T13:11:05;7.00;;;6.30;;
10586;SDS011;5341;47.606;7.576;2022-08-18T13:13:36;6.50;;;5.90;;
10586;SDS011;5341;47.606;7.576;2022-08-18T13:16:05;6.28;;;5.72;;
10586;SDS011;5341;47.606;7.576;2022-08-18T13:18:33;6.85;;;4.97;;
10586;SDS011;5341;47.606;7.576;2022-08-18T13:21:01;6.78;;;5.57;;
10586;SDS011;5341;47.606;7.576;2022-08-18T13:23:31;6.68;;;5.22;;
10586;SDS011;5341;47.606;7.576;2022-08-18T13:25:59;7.65;;;4.72;;
10586;SDS011;5341;47.606;7.576;2022-08-18T13:28:27;5.60;;;4.97;;
10586;SDS011;5341;47.606;7.576;2022-08-18T13:30:57;5.20;;;4.70;;
10586;SDS011;5341;47.606;7.576;2022-08-18T13:33:24;7.15;;;4.50;;
10586;SDS011;5341;47.606;7.576;2022-08-18T13:35:52;5.85;;;4.68;;
10586;SDS011;5341;47.606;7.576;2022-08-18T13:38:20;4.35;;;3.92;;
10586;SDS011;5341;47.606;7.576;2022-08-18T13:40:50;4.32;;;3.92;;
10586;SDS011;5341;47.606;7.576;2022-08-18T13:43:20;4.90;;;4.40;;
10586;SDS011;5341;47.606;7.576;2022-08-18T13:45:52;5.82;;;4.65;;
10586;SDS011;5341;47.606;7.576;2022-08-18T13:48:21;4.70;;;4.30;;
10586;SDS011;5341;47.606;7.576;2022-08-18T13:50:49;6.60;;;4.38;;
10586;SDS011;5341;47.606;7.576;2022-08-18T13:53:19;5.72;;;4.47;;
10586;SDS011;5341;47.606;7.576;2022-08-18T13:55:48;5.50;;;4.30;;
10586;SDS011;5341;47.606;7.576;2022-08-18T13:58:15;4.57;;;3.90;;
10586;SDS011;5341;47.606;7.576;2022-08-18T14:00:43;4.60;;;4.20;;
10586;SDS011;5341;47.606;7.576;2022-08-18T14:03:11;4.90;;;4.50;;
10586;SDS011;5341;47.606;7.576;2022-08-18T14:05:40;5.47;;;4.55;;
10586;SDS011;5341;47.606;7.576;2022-08-18T14:08:08;5.78;;;5.10;;
10586;SDS011;5341;47.606;7.576;2022-08-18T14:10:42;5.13;;;4.63;;
10586;SDS011;5341;47.606;7.576;2022-08-18T14:13:10;4.50;;;4.10;;
10586;SDS011;5341;47.606;7.576;2022-08-18T14:15:39;4.53;;;4.10;;
10586;SDS011;5341;47.606;7.576;2022-08-18T14:18:10;4.78;;;4.38;;
10586;SDS011;5341;47.606;7.576;2022-08-18T14:20:38;4.93;;;4.35;;
10586;SDS011;5341;47.606;7.576;2022-08-18T14:23:24;6.50;;;3.88;;
10586;SDS011;5341;47.606;7.576;2022-08-18T14:26:09;4.50;;;4.10;;
10586;SDS011;5341;47.606;7.576;2022-08-18T14:28:54;5.28;;;4.10;;
10586;SDS011;5341;47.606;7.576;2022-08-18T14:31:21;5.97;;;4.38;;
10586;SDS011;5341;47.606;7.576;2022-08-18T14:33:49;5.25;;;4.65;;
10586;SDS011;5341;47.606;7.576;2022-08-18T14:36:22;4.57;;;4.18;;
10586;SDS011;5341;47.606;7.576;2022-08-18T14:38:52;4.35;;;3.95;;
10586;SDS011;5341;47.606;7.576;2022-08-18T14:41:23;4.78;;;4.32;;
10586;SDS011;5341;47.606;7.576;2022-08-18T14:43:50;5.00;;;4.50;;
10586;SDS011;5341;47.606;7.576;2022-08-18T14:46:21;5.07;;;4.60;;
10586;SDS011;5341;47.606;7.576;2022-08-18T14:48:48;6.15;;;4.57;;
10586;SDS011;5341;47.606;7.576;2022-08-18T14:51:16;5.07;;;4.57;;
10586;SDS011;5341;47.606;7.576;2022-08-18T14:53:45;5.60;;;5.10;;
10586;SDS011;5341;47.606;7.576;2022-08-18T14:56:12;5.57;;;5.03;;
10586;SDS011;5341;47.606;7.576;2022-08-18T14:58:40;5.20;;;4.70;;
10586;SDS011;5341;47.606;7.576;2022-08-18T15:01:08;5.25;;;4.75;;
10586;SDS011;5341;47.606;7.576;2022-08-18T15:03:37;5.82;;;4.25;;
10586;SDS011;5341;47.606;7.576;2022-08-18T15:06:06;4.95;;;4.15;;
10586;SDS011;5341;47.606;7.576;2022-08-18T15:08:35;4.93;;;4.40;;
10586;SDS011;5341;47.606;7.576;2022-08-18T15:11:05;5.90;;;4.60;;
10586;SDS011;5341;47.606;7.576;2022-08-18T15:13:33;4.53;;;4.15;;
10586;SDS011;5341;47.606;7.576;2022-08-18T15:16:02;4.40;;;4.00;;
10586;SDS011;5341;47.606;7.576;2022-08-18T15:18:30;4.93;;;4.30;;
10586;SDS011;5341;47.606;7.576;2022-08-18T15:20:58;4.50;;;4.10;;
10586;SDS011;5341;47.606;7.576;2022-08-18T15:23:43;4.93;;;4.25;;
10586;SDS011;5341;47.606;7.576;2022-08-18T15:26:29;4.72;;;4.30;;
10586;SDS011;5341;47.606;7.576;2022-08-18T15:28:57;5.68;;;4.25;;
10586;SDS011;5341;47.606;7.576;2022-08-18T15:31:25;5.85;;;3.92;;
10586;SDS011;5341;47.606;7.576;2022-08-18T15:33:52;4.60;;;4.13;;
10586;SDS011;5341;47.606;7.576;2022-08-18T15:36:20;4.90;;;4.00;;
10586;SDS011;5341;47.606;7.576;2022-08-18T15:38:48;6.50;;;4.07;;
10586;SDS011;5341;47.606;7.576;2022-08-18T15:41:25;4.88;;;4.30;;
10586;SDS011;5341;47.606;7.576;2022-08-18T15:43:57;4.47;;;4.00;;
10586;SDS011;5341;47.606;7.576;2022-08-18T15:46:25;5.00;;;4.50;;
10586;SDS011;5341;47.606;7.576;2022-08-18T15:48:54;5.30;;;4.72;;
10586;SDS011;5341;47.606;7.576;2022-08-18T15:51:21;5.20;;;4.60;;
10586;SDS011;5341;47.606;7.576;2022-08-18T15:53:49;5.30;;;4.80;;